Hlavní strana
METAR-TAF:

METAR-TAF

Letiště :

Calhoun, Georgie, Spojené státy americké

zeměpisná šířka: 34-27-20N, zeměpisná délka: 084-56-21W, výška: 198 m

Aktuální stav počasí

Zpráva byla vytvořena před 11 minutami, v 18:55 UTC
Severní vítr 6 kt
Teplota 12°C
Vlhkost vzduchu 44%
Tlak 1021 hPa
Viditelnost: 16.1 km
Oblačno až skoro zataženo ve výšce 9000 ft

METAR: KCZL 151855Z AUTO 01006KT 10SM BKN090 12/00 A3015 RMK AO2

Čas: 14:06 (19:06 UTC)


TAF: chybějící

Stav a předpovědi počasí z více než 4 000 letišť (zprávy METAR a TAF).

Červené a žluté tečky na mapě představují dostupné meteorologické stanice.

Když kurzor umístíte na tečku, zobrazí se název stanice.

Pak kliknutím zobrazíte stav a předpověď počasí.

Chcete-li změnit mapu, kliknutím na zelené tlačítko se znaménkem +mapu přiblížíte, kliknutím na zelené tlačítko se znaménkem – mapu oddálíte a kliknutím na zelené šipky přejdete na sousední mapy.


METAR-TAF: